KABE

Lehigh Valley International Airport

Allentown, Pennsylvania, USA
METAR KABE 181951Z 21006KT 6SM HZ BKN085 08/02 A2997 RMK AO2 SLP150 T00830017
Observed Flight Rules
Dec-18 @ 19:51 UTC (22 minutes ago) Visual Flight Rules
Wind Visibility Clouds Conditions
210° at 6 knots 6 miles
  • Broken at 8,500' AGL
  • Haze
Temperatures Readings
Current 8°C / 46°F
Dewpoint 2°C / 36°F
Humidity 66%
Altimeter 29.97" Hg
Pressure 1015 hPa
Elevation 114
METAR KABE 181951Z 21006KT 6SM HZ BKN085 08/02 A2997 RMK AO2 SLP150 T00830017
Observed Flight Rules
Dec-18 @ 19:51 UTC
(22 minutes ago)
VFR
Wind Visibility
210° at 6 knots 6 miles
Clouds
  • Broken at 8,500' AGL
Conditions
  • Haze
Temperature Dewpoint
8°C / 46°F 2°C / 36°F
Humidity Altimeter Pressure
66% 29.97" Hg 1015 hPa